sensor_id;sensor_type;location;lat;lon;timestamp;temperature;humidity
51908;DHT22;39320;53.214;6.556;2023-06-10T00:01:29;19.70;99.90
51908;DHT22;39320;53.214;6.556;2023-06-10T00:03:55;19.70;99.90
51908;DHT22;39320;53.214;6.556;2023-06-10T00:06:21;19.70;99.90
51908;DHT22;39320;53.214;6.556;2023-06-10T00:08:50;19.70;99.90
51908;DHT22;39320;53.214;6.556;2023-06-10T00:11:16;19.70;99.90
51908;DHT22;39320;53.214;6.556;2023-06-10T00:13:42;19.70;99.90
51908;DHT22;39320;53.214;6.556;2023-06-10T00:16:08;19.60;99.90
51908;DHT22;39320;53.214;6.556;2023-06-10T00:18:34;19.60;99.90
51908;DHT22;39320;53.214;6.556;2023-06-10T00:21:02;19.60;99.90
51908;DHT22;39320;53.214;6.556;2023-06-10T00:23:31;19.60;99.90
51908;DHT22;39320;53.214;6.556;2023-06-10T00:26:03;19.60;99.90
51908;DHT22;39320;53.214;6.556;2023-06-10T00:28:30;19.70;99.90
51908;DHT22;39320;53.214;6.556;2023-06-10T00:30:56;19.70;99.90
51908;DHT22;39320;53.214;6.556;2023-06-10T00:33:23;19.60;99.90
51908;DHT22;39320;53.214;6.556;2023-06-10T00:35:48;19.60;99.90
51908;DHT22;39320;53.214;6.556;2023-06-10T00:38:14;19.50;99.90
51908;DHT22;39320;53.214;6.556;2023-06-10T00:40:41;19.50;99.90
51908;DHT22;39320;53.214;6.556;2023-06-10T00:43:07;19.50;99.90
51908;DHT22;39320;53.214;6.556;2023-06-10T00:45:33;19.50;99.90
51908;DHT22;39320;53.214;6.556;2023-06-10T00:48:00;19.40;99.90
51908;DHT22;39320;53.214;6.556;2023-06-10T00:50:27;19.40;99.90
51908;DHT22;39320;53.214;6.556;2023-06-10T00:52:54;19.40;99.90
51908;DHT22;39320;53.214;6.556;2023-06-10T00:55:20;19.40;99.90
51908;DHT22;39320;53.214;6.556;2023-06-10T00:57:47;19.40;99.90
51908;DHT22;39320;53.214;6.556;2023-06-10T01:00:14;19.50;99.90
51908;DHT22;39320;53.214;6.556;2023-06-10T01:02:41;19.50;99.90
51908;DHT22;39320;53.214;6.556;2023-06-10T01:05:08;19.50;99.90
51908;DHT22;39320;53.214;6.556;2023-06-10T01:10:53;19.40;99.90
51908;DHT22;39320;53.214;6.556;2023-06-10T01:13:23;19.40;99.90
51908;DHT22;39320;53.214;6.556;2023-06-10T01:15:50;19.40;99.90
51908;DHT22;39320;53.214;6.556;2023-06-10T01:18:17;19.40;99.90
51908;DHT22;39320;53.214;6.556;2023-06-10T01:20:43;19.30;99.90
51908;DHT22;39320;53.214;6.556;2023-06-10T01:23:12;19.20;99.90
51908;DHT22;39320;53.214;6.556;2023-06-10T01:25:45;19.10;99.90
51908;DHT22;39320;53.214;6.556;2023-06-10T01:28:30;19.00;99.90
51908;DHT22;39320;53.214;6.556;2023-06-10T01:33:41;18.90;99.90
51908;DHT22;39320;53.214;6.556;2023-06-10T01:36:07;18.80;99.90
51908;DHT22;39320;53.214;6.556;2023-06-10T01:38:40;18.80;99.90
51908;DHT22;39320;53.214;6.556;2023-06-10T01:41:08;18.80;99.90
51908;DHT22;39320;53.214;6.556;2023-06-10T01:43:38;18.80;99.90
51908;DHT22;39320;53.214;6.556;2023-06-10T01:46:04;18.80;99.90
51908;DHT22;39320;53.214;6.556;2023-06-10T01:48:29;18.80;99.90
51908;DHT22;39320;53.214;6.556;2023-06-10T01:50:55;18.90;99.90
51908;DHT22;39320;53.214;6.556;2023-06-10T01:53:24;18.90;99.90
51908;DHT22;39320;53.214;6.556;2023-06-10T01:55:49;18.90;99.90
51908;DHT22;39320;53.214;6.556;2023-06-10T01:58:16;18.80;99.90
51908;DHT22;39320;53.214;6.556;2023-06-10T02:00:42;18.90;99.90
51908;DHT22;39320;53.214;6.556;2023-06-10T02:03:07;18.90;99.90
51908;DHT22;39320;53.214;6.556;2023-06-10T02:05:33;18.80;99.90
51908;DHT22;39320;53.214;6.556;2023-06-10T02:07:59;18.80;99.90
51908;DHT22;39320;53.214;6.556;2023-06-10T02:10:25;18.80;99.90
51908;DHT22;39320;53.214;6.556;2023-06-10T02:12:50;18.80;99.90
51908;DHT22;39320;53.214;6.556;2023-06-10T02:15:16;18.70;99.90
51908;DHT22;39320;53.214;6.556;2023-06-10T02:17:42;18.60;99.90
51908;DHT22;39320;53.214;6.556;2023-06-10T02:20:08;18.70;99.90
51908;DHT22;39320;53.214;6.556;2023-06-10T02:22:36;18.70;99.90
51908;DHT22;39320;53.214;6.556;2023-06-10T02:25:03;18.60;99.90
51908;DHT22;39320;53.214;6.556;2023-06-10T02:27:29;18.60;99.90
51908;DHT22;39320;53.214;6.556;2023-06-10T02:29:56;18.60;99.90
51908;DHT22;39320;53.214;6.556;2023-06-10T02:32:22;18.60;99.90
51908;DHT22;39320;53.214;6.556;2023-06-10T02:34:48;18.50;99.90
51908;DHT22;39320;53.214;6.556;2023-06-10T02:37:16;18.50;99.90
51908;DHT22;39320;53.214;6.556;2023-06-10T02:39:43;18.50;99.90
51908;DHT22;39320;53.214;6.556;2023-06-10T02:42:08;18.40;99.90
51908;DHT22;39320;53.214;6.556;2023-06-10T02:44:35;18.40;99.90
51908;DHT22;39320;53.214;6.556;2023-06-10T02:47:01;18.30;99.90
51908;DHT22;39320;53.214;6.556;2023-06-10T02:49:27;18.30;99.90
51908;DHT22;39320;53.214;6.556;2023-06-10T02:51:56;18.30;99.90
51908;DHT22;39320;53.214;6.556;2023-06-10T02:54:25;18.30;99.90
51908;DHT22;39320;53.214;6.556;2023-06-10T02:56:52;18.30;99.90
51908;DHT22;39320;53.214;6.556;2023-06-10T02:59:18;18.30;99.90
51908;DHT22;39320;53.214;6.556;2023-06-10T03:01:45;18.30;99.90
51908;DHT22;39320;53.214;6.556;2023-06-10T03:04:11;18.20;99.90
51908;DHT22;39320;53.214;6.556;2023-06-10T03:06:39;18.10;99.90
51908;DHT22;39320;53.214;6.556;2023-06-10T03:09:06;18.10;99.90
51908;DHT22;39320;53.214;6.556;2023-06-10T03:11:35;18.10;99.90
51908;DHT22;39320;53.214;6.556;2023-06-10T03:14:01;18.10;99.90
51908;DHT22;39320;53.214;6.556;2023-06-10T03:16:27;18.00;99.90
51908;DHT22;39320;53.214;6.556;2023-06-10T03:18:53;18.00;99.90
51908;DHT22;39320;53.214;6.556;2023-06-10T03:21:19;18.00;99.90
51908;DHT22;39320;53.214;6.556;2023-06-10T03:23:45;17.90;99.90
51908;DHT22;39320;53.214;6.556;2023-06-10T03:26:11;17.80;99.90
51908;DHT22;39320;53.214;6.556;2023-06-10T03:28:39;17.70;99.90
51908;DHT22;39320;53.214;6.556;2023-06-10T03:31:05;17.80;99.90
51908;DHT22;39320;53.214;6.556;2023-06-10T03:33:31;17.80;99.90
51908;DHT22;39320;53.214;6.556;2023-06-10T03:35:58;17.80;99.90
51908;DHT22;39320;53.214;6.556;2023-06-10T03:38:23;17.80;99.90
51908;DHT22;39320;53.214;6.556;2023-06-10T03:40:49;17.80;99.90
51908;DHT22;39320;53.214;6.556;2023-06-10T03:43:15;17.80;99.90
51908;DHT22;39320;53.214;6.556;2023-06-10T03:45:41;17.70;99.90
51908;DHT22;39320;53.214;6.556;2023-06-10T03:48:07;17.70;99.90
51908;DHT22;39320;53.214;6.556;2023-06-10T03:50:34;17.70;99.90
51908;DHT22;39320;53.214;6.556;2023-06-10T03:52:59;17.70;99.90
51908;DHT22;39320;53.214;6.556;2023-06-10T03:55:26;17.80;99.90
51908;DHT22;39320;53.214;6.556;2023-06-10T03:57:51;17.70;99.90
51908;DHT22;39320;53.214;6.556;2023-06-10T04:00:17;17.80;99.90
51908;DHT22;39320;53.214;6.556;2023-06-10T04:02:46;17.80;99.90
51908;DHT22;39320;53.214;6.556;2023-06-10T04:05:15;17.70;99.90
51908;DHT22;39320;53.214;6.556;2023-06-10T04:07:41;17.70;99.90
51908;DHT22;39320;53.214;6.556;2023-06-10T04:10:10;17.60;99.90
51908;DHT22;39320;53.214;6.556;2023-06-10T04:12:36;17.70;99.90
51908;DHT22;39320;53.214;6.556;2023-06-10T04:15:04;17.70;99.90
51908;DHT22;39320;53.214;6.556;2023-06-10T04:17:30;17.80;99.90
51908;DHT22;39320;53.214;6.556;2023-06-10T04:19:56;17.70;99.90
51908;DHT22;39320;53.214;6.556;2023-06-10T04:22:23;17.60;99.90
51908;DHT22;39320;53.214;6.556;2023-06-10T04:24:49;17.60;99.90
51908;DHT22;39320;53.214;6.556;2023-06-10T04:27:15;17.70;99.90
51908;DHT22;39320;53.214;6.556;2023-06-10T04:29:41;17.70;99.90
51908;DHT22;39320;53.214;6.556;2023-06-10T04:32:07;17.70;99.90
51908;DHT22;39320;53.214;6.556;2023-06-10T04:34:33;17.60;99.90
51908;DHT22;39320;53.214;6.556;2023-06-10T04:36:59;17.60;99.90
51908;DHT22;39320;53.214;6.556;2023-06-10T04:39:25;17.60;99.90
51908;DHT22;39320;53.214;6.556;2023-06-10T04:41:51;17.60;99.90
51908;DHT22;39320;53.214;6.556;2023-06-10T04:44:17;17.50;99.90
51908;DHT22;39320;53.214;6.556;2023-06-10T04:46:44;17.60;99.90
51908;DHT22;39320;53.214;6.556;2023-06-10T04:49:10;17.50;99.90
51908;DHT22;39320;53.214;6.556;2023-06-10T04:51:36;17.50;99.90
51908;DHT22;39320;53.214;6.556;2023-06-10T04:54:03;17.50;99.90
51908;DHT22;39320;53.214;6.556;2023-06-10T04:56:29;17.40;99.90
51908;DHT22;39320;53.214;6.556;2023-06-10T04:58:56;17.40;99.90
51908;DHT22;39320;53.214;6.556;2023-06-10T05:01:22;17.50;99.90
51908;DHT22;39320;53.214;6.556;2023-06-10T05:03:48;17.50;99.90
51908;DHT22;39320;53.214;6.556;2023-06-10T05:06:14;17.40;99.90
51908;DHT22;39320;53.214;6.556;2023-06-10T05:08:40;17.50;99.90
51908;DHT22;39320;53.214;6.556;2023-06-10T05:11:05;17.50;99.90
51908;DHT22;39320;53.214;6.556;2023-06-10T05:13:32;17.60;99.90
51908;DHT22;39320;53.214;6.556;2023-06-10T05:15:58;17.50;99.90
51908;DHT22;39320;53.214;6.556;2023-06-10T05:18:24;17.60;99.90
51908;DHT22;39320;53.214;6.556;2023-06-10T05:20:49;17.60;99.90
51908;DHT22;39320;53.214;6.556;2023-06-10T05:23:15;17.60;99.90
51908;DHT22;39320;53.214;6.556;2023-06-10T05:25:41;17.60;99.90
51908;DHT22;39320;53.214;6.556;2023-06-10T05:28:08;17.50;99.90
51908;DHT22;39320;53.214;6.556;2023-06-10T05:30:36;17.50;99.90
51908;DHT22;39320;53.214;6.556;2023-06-10T05:33:02;17.50;99.90
51908;DHT22;39320;53.214;6.556;2023-06-10T05:35:28;17.50;99.90
51908;DHT22;39320;53.214;6.556;2023-06-10T05:37:54;17.50;99.90
51908;DHT22;39320;53.214;6.556;2023-06-10T05:40:20;17.50;99.90
51908;DHT22;39320;53.214;6.556;2023-06-10T05:42:45;17.50;99.90
51908;DHT22;39320;53.214;6.556;2023-06-10T05:45:11;17.60;99.90
51908;DHT22;39320;53.214;6.556;2023-06-10T05:47:38;17.50;99.90
51908;DHT22;39320;53.214;6.556;2023-06-10T05:50:04;17.60;99.90
51908;DHT22;39320;53.214;6.556;2023-06-10T05:52:34;17.70;99.90
51908;DHT22;39320;53.214;6.556;2023-06-10T05:55:01;17.70;99.90
51908;DHT22;39320;53.214;6.556;2023-06-10T05:57:27;17.70;99.90
51908;DHT22;39320;53.214;6.556;2023-06-10T05:59:52;17.60;99.90
51908;DHT22;39320;53.214;6.556;2023-06-10T06:02:18;17.70;99.90
51908;DHT22;39320;53.214;6.556;2023-06-10T06:04:43;17.60;99.90
51908;DHT22;39320;53.214;6.556;2023-06-10T06:07:09;17.60;99.90
51908;DHT22;39320;53.214;6.556;2023-06-10T06:09:35;17.60;99.90
51908;DHT22;39320;53.214;6.556;2023-06-10T06:12:01;17.70;99.90
51908;DHT22;39320;53.214;6.556;2023-06-10T06:14:30;17.80;99.90
51908;DHT22;39320;53.214;6.556;2023-06-10T06:16:56;17.80;99.90
51908;DHT22;39320;53.214;6.556;2023-06-10T06:19:22;17.80;99.90
51908;DHT22;39320;53.214;6.556;2023-06-10T06:21:48;17.90;99.90
51908;DHT22;39320;53.214;6.556;2023-06-10T06:24:15;17.90;99.90
51908;DHT22;39320;53.214;6.556;2023-06-10T06:26:41;17.90;99.90
51908;DHT22;39320;53.214;6.556;2023-06-10T06:29:06;17.90;99.90
51908;DHT22;39320;53.214;6.556;2023-06-10T06:31:32;18.00;99.90
51908;DHT22;39320;53.214;6.556;2023-06-10T06:33:58;18.00;99.90
51908;DHT22;39320;53.214;6.556;2023-06-10T06:36:24;18.00;99.90
51908;DHT22;39320;53.214;6.556;2023-06-10T06:38:49;17.90;99.90
51908;DHT22;39320;53.214;6.556;2023-06-10T06:41:15;17.90;99.90
51908;DHT22;39320;53.214;6.556;2023-06-10T06:43:42;17.90;99.90
51908;DHT22;39320;53.214;6.556;2023-06-10T06:46:08;18.00;99.90
51908;DHT22;39320;53.214;6.556;2023-06-10T06:48:34;18.00;99.90
51908;DHT22;39320;53.214;6.556;2023-06-10T06:51:00;18.00;99.90
51908;DHT22;39320;53.214;6.556;2023-06-10T06:53:26;18.10;99.90
51908;DHT22;39320;53.214;6.556;2023-06-10T06:55:52;18.10;99.90
51908;DHT22;39320;53.214;6.556;2023-06-10T06:58:17;18.10;99.90
51908;DHT22;39320;53.214;6.556;2023-06-10T07:00:43;18.10;99.90
51908;DHT22;39320;53.214;6.556;2023-06-10T07:03:09;18.20;99.90
51908;DHT22;39320;53.214;6.556;2023-06-10T07:05:35;18.30;99.90
51908;DHT22;39320;53.214;6.556;2023-06-10T07:08:01;18.40;99.90
51908;DHT22;39320;53.214;6.556;2023-06-10T07:10:28;18.50;99.90
51908;DHT22;39320;53.214;6.556;2023-06-10T07:12:54;18.60;99.90
51908;DHT22;39320;53.214;6.556;2023-06-10T07:15:20;18.70;99.90
51908;DHT22;39320;53.214;6.556;2023-06-10T07:17:45;18.70;99.90
51908;DHT22;39320;53.214;6.556;2023-06-10T07:20:11;18.80;99.90
51908;DHT22;39320;53.214;6.556;2023-06-10T07:22:37;18.70;99.90
51908;DHT22;39320;53.214;6.556;2023-06-10T07:25:06;18.90;99.90
51908;DHT22;39320;53.214;6.556;2023-06-10T07:27:32;18.90;99.90
51908;DHT22;39320;53.214;6.556;2023-06-10T07:29:57;19.00;99.90
51908;DHT22;39320;53.214;6.556;2023-06-10T07:32:23;19.10;99.90
51908;DHT22;39320;53.214;6.556;2023-06-10T07:34:50;19.10;99.90
51908;DHT22;39320;53.214;6.556;2023-06-10T07:37:16;19.20;99.90
51908;DHT22;39320;53.214;6.556;2023-06-10T07:39:42;19.20;99.90
51908;DHT22;39320;53.214;6.556;2023-06-10T07:42:08;19.30;99.90
51908;DHT22;39320;53.214;6.556;2023-06-10T07:44:34;19.40;99.90
51908;DHT22;39320;53.214;6.556;2023-06-10T07:47:00;19.40;99.90
51908;DHT22;39320;53.214;6.556;2023-06-10T07:49:26;19.50;99.90
51908;DHT22;39320;53.214;6.556;2023-06-10T07:51:56;19.50;99.90
51908;DHT22;39320;53.214;6.556;2023-06-10T07:54:22;19.50;99.90
51908;DHT22;39320;53.214;6.556;2023-06-10T07:56:48;19.60;99.90
51908;DHT22;39320;53.214;6.556;2023-06-10T07:59:16;19.50;99.90
51908;DHT22;39320;53.214;6.556;2023-06-10T08:01:42;19.50;99.90
51908;DHT22;39320;53.214;6.556;2023-06-10T08:04:08;19.60;99.90
51908;DHT22;39320;53.214;6.556;2023-06-10T08:06:34;19.50;99.90
51908;DHT22;39320;53.214;6.556;2023-06-10T08:09:00;19.60;99.90
51908;DHT22;39320;53.214;6.556;2023-06-10T08:11:26;19.60;99.90
51908;DHT22;39320;53.214;6.556;2023-06-10T08:13:54;19.60;99.90
51908;DHT22;39320;53.214;6.556;2023-06-10T08:16:20;19.60;99.90
51908;DHT22;39320;53.214;6.556;2023-06-10T08:18:45;19.60;99.90
51908;DHT22;39320;53.214;6.556;2023-06-10T08:21:11;19.70;99.90
51908;DHT22;39320;53.214;6.556;2023-06-10T08:23:37;19.70;99.90
51908;DHT22;39320;53.214;6.556;2023-06-10T08:26:03;19.70;99.90
51908;DHT22;39320;53.214;6.556;2023-06-10T08:28:28;19.70;99.90
51908;DHT22;39320;53.214;6.556;2023-06-10T08:30:54;19.70;99.90
51908;DHT22;39320;53.214;6.556;2023-06-10T08:33:20;19.70;99.90
51908;DHT22;39320;53.214;6.556;2023-06-10T08:35:46;19.70;99.90
51908;DHT22;39320;53.214;6.556;2023-06-10T08:38:11;19.70;99.90
51908;DHT22;39320;53.214;6.556;2023-06-10T08:40:37;19.80;99.90
51908;DHT22;39320;53.214;6.556;2023-06-10T08:45:30;19.80;99.90
51908;DHT22;39320;53.214;6.556;2023-06-10T08:48:02;19.90;99.90
51908;DHT22;39320;53.214;6.556;2023-06-10T08:50:36;19.80;99.90
51908;DHT22;39320;53.214;6.556;2023-06-10T08:53:05;19.80;99.90
51908;DHT22;39320;53.214;6.556;2023-06-10T08:55:42;19.80;99.90
51908;DHT22;39320;53.214;6.556;2023-06-10T08:58:11;19.80;99.90
51908;DHT22;39320;53.214;6.556;2023-06-10T09:00:38;19.80;99.90
51908;DHT22;39320;53.214;6.556;2023-06-10T09:03:04;19.80;99.90
51908;DHT22;39320;53.214;6.556;2023-06-10T09:05:33;19.90;99.90
51908;DHT22;39320;53.214;6.556;2023-06-10T09:08:00;19.90;99.90
51908;DHT22;39320;53.214;6.556;2023-06-10T09:10:27;19.90;99.90
51908;DHT22;39320;53.214;6.556;2023-06-10T09:12:53;20.00;99.90
51908;DHT22;39320;53.214;6.556;2023-06-10T09:15:19;20.00;99.90
51908;DHT22;39320;53.214;6.556;2023-06-10T09:17:45;20.00;99.90
51908;DHT22;39320;53.214;6.556;2023-06-10T09:20:11;20.00;99.90
51908;DHT22;39320;53.214;6.556;2023-06-10T09:22:37;20.10;99.90
51908;DHT22;39320;53.214;6.556;2023-06-10T09:25:11;20.10;99.90
51908;DHT22;39320;53.214;6.556;2023-06-10T09:28:04;20.10;99.90
51908;DHT22;39320;53.214;6.556;2023-06-10T09:30:32;20.10;99.90
51908;DHT22;39320;53.214;6.556;2023-06-10T09:33:02;20.10;99.90
51908;DHT22;39320;53.214;6.556;2023-06-10T09:35:29;20.20;99.90
51908;DHT22;39320;53.214;6.556;2023-06-10T09:37:58;20.20;99.90
51908;DHT22;39320;53.214;6.556;2023-06-10T09:40:25;20.20;99.90
51908;DHT22;39320;53.214;6.556;2023-06-10T09:42:59;20.20;99.90
51908;DHT22;39320;53.214;6.556;2023-06-10T09:45:32;20.30;99.90
51908;DHT22;39320;53.214;6.556;2023-06-10T09:47:58;20.30;99.90
51908;DHT22;39320;53.214;6.556;2023-06-10T09:50:24;20.40;99.90
51908;DHT22;39320;53.214;6.556;2023-06-10T09:52:50;20.40;99.90
51908;DHT22;39320;53.214;6.556;2023-06-10T09:55:17;20.40;99.90
51908;DHT22;39320;53.214;6.556;2023-06-10T09:57:43;20.40;99.90
51908;DHT22;39320;53.214;6.556;2023-06-10T10:00:13;20.50;99.90
51908;DHT22;39320;53.214;6.556;2023-06-10T10:02:51;20.50;99.90
51908;DHT22;39320;53.214;6.556;2023-06-10T10:05:18;20.50;99.90
51908;DHT22;39320;53.214;6.556;2023-06-10T10:07:45;20.50;99.90
51908;DHT22;39320;53.214;6.556;2023-06-10T10:10:12;20.60;99.90
51908;DHT22;39320;53.214;6.556;2023-06-10T10:12:39;20.60;99.90
51908;DHT22;39320;53.214;6.556;2023-06-10T10:15:10;20.60;99.90
51908;DHT22;39320;53.214;6.556;2023-06-10T10:17:52;20.70;99.90
51908;DHT22;39320;53.214;6.556;2023-06-10T10:20:22;20.70;99.90
51908;DHT22;39320;53.214;6.556;2023-06-10T10:22:50;20.70;99.90
51908;DHT22;39320;53.214;6.556;2023-06-10T10:25:24;20.70;99.90
51908;DHT22;39320;53.214;6.556;2023-06-10T10:27:52;20.70;99.90
51908;DHT22;39320;53.214;6.556;2023-06-10T10:30:21;20.70;99.90
51908;DHT22;39320;53.214;6.556;2023-06-10T10:33:05;20.70;99.90
51908;DHT22;39320;53.214;6.556;2023-06-10T10:35:36;20.80;99.90
51908;DHT22;39320;53.214;6.556;2023-06-10T10:38:02;20.90;99.90
51908;DHT22;39320;53.214;6.556;2023-06-10T10:40:29;20.90;99.90
51908;DHT22;39320;53.214;6.556;2023-06-10T10:42:56;20.90;99.90
51908;DHT22;39320;53.214;6.556;2023-06-10T10:45:22;21.00;99.90
51908;DHT22;39320;53.214;6.556;2023-06-10T10:47:54;21.00;99.90
51908;DHT22;39320;53.214;6.556;2023-06-10T10:50:23;21.10;99.90
51908;DHT22;39320;53.214;6.556;2023-06-10T10:53:03;21.20;99.90
51908;DHT22;39320;53.214;6.556;2023-06-10T10:55:29;21.20;99.90
51908;DHT22;39320;53.214;6.556;2023-06-10T10:57:57;21.30;99.90
51908;DHT22;39320;53.214;6.556;2023-06-10T11:00:34;21.40;99.90
51908;DHT22;39320;53.214;6.556;2023-06-10T11:05:48;21.40;99.90
51908;DHT22;39320;53.214;6.556;2023-06-10T11:08:16;21.50;99.90
51908;DHT22;39320;53.214;6.556;2023-06-10T11:11:26;21.60;99.90
51908;DHT22;39320;53.214;6.556;2023-06-10T11:16:27;21.70;99.90
51908;DHT22;39320;53.214;6.556;2023-06-10T11:18:54;21.70;99.90
51908;DHT22;39320;53.214;6.556;2023-06-10T11:21:20;21.80;99.90
51908;DHT22;39320;53.214;6.556;2023-06-10T11:23:50;21.80;99.90
51908;DHT22;39320;53.214;6.556;2023-06-10T11:29:00;21.90;99.90
51908;DHT22;39320;53.214;6.556;2023-06-10T11:31:35;22.00;99.90
51908;DHT22;39320;53.214;6.556;2023-06-10T11:34:03;22.00;99.90
51908;DHT22;39320;53.214;6.556;2023-06-10T11:36:32;22.00;99.90
51908;DHT22;39320;53.214;6.556;2023-06-10T11:39:03;22.10;99.90
51908;DHT22;39320;53.214;6.556;2023-06-10T11:41:30;22.10;99.90
51908;DHT22;39320;53.214;6.556;2023-06-10T11:44:14;22.20;99.90
51908;DHT22;39320;53.214;6.556;2023-06-10T11:46:40;22.20;99.90
51908;DHT22;39320;53.214;6.556;2023-06-10T11:49:08;22.30;99.90
51908;DHT22;39320;53.214;6.556;2023-06-10T11:51:38;22.30;99.90
51908;DHT22;39320;53.214;6.556;2023-06-10T11:54:05;22.40;99.90
51908;DHT22;39320;53.214;6.556;2023-06-10T11:56:32;22.40;99.90
51908;DHT22;39320;53.214;6.556;2023-06-10T11:59:03;22.50;99.90
51908;DHT22;39320;53.214;6.556;2023-06-10T12:01:42;22.60;99.90
51908;DHT22;39320;53.214;6.556;2023-06-10T12:04:13;22.70;99.90
51908;DHT22;39320;53.214;6.556;2023-06-10T12:11:45;22.90;99.90
51908;DHT22;39320;53.214;6.556;2023-06-10T12:14:10;22.90;99.90
51908;DHT22;39320;53.214;6.556;2023-06-10T12:16:36;22.90;99.90
51908;DHT22;39320;53.214;6.556;2023-06-10T12:19:03;23.00;99.90
51908;DHT22;39320;53.214;6.556;2023-06-10T12:21:31;23.00;99.90
51908;DHT22;39320;53.214;6.556;2023-06-10T12:24:10;23.10;99.90
51908;DHT22;39320;53.214;6.556;2023-06-10T12:26:44;23.20;99.90
51908;DHT22;39320;53.214;6.556;2023-06-10T12:29:23;23.20;99.90
51908;DHT22;39320;53.214;6.556;2023-06-10T12:32:02;23.30;99.90
51908;DHT22;39320;53.214;6.556;2023-06-10T12:34:33;23.40;99.90
51908;DHT22;39320;53.214;6.556;2023-06-10T12:37:01;23.40;99.90
51908;DHT22;39320;53.214;6.556;2023-06-10T12:39:28;23.50;99.90
51908;DHT22;39320;53.214;6.556;2023-06-10T12:41:54;23.50;99.90
51908;DHT22;39320;53.214;6.556;2023-06-10T12:44:32;23.60;99.90
51908;DHT22;39320;53.214;6.556;2023-06-10T12:46:58;23.60;99.90
51908;DHT22;39320;53.214;6.556;2023-06-10T12:49:23;23.60;99.90
51908;DHT22;39320;53.214;6.556;2023-06-10T12:51:49;23.70;99.90
51908;DHT22;39320;53.214;6.556;2023-06-10T12:54:15;23.70;99.90
51908;DHT22;39320;53.214;6.556;2023-06-10T12:56:41;23.80;99.90
51908;DHT22;39320;53.214;6.556;2023-06-10T12:59:06;23.80;99.90
51908;DHT22;39320;53.214;6.556;2023-06-10T13:01:32;23.90;99.90
51908;DHT22;39320;53.214;6.556;2023-06-10T13:03:59;23.90;99.90
51908;DHT22;39320;53.214;6.556;2023-06-10T13:06:25;23.90;99.90
51908;DHT22;39320;53.214;6.556;2023-06-10T13:08:51;23.90;99.90
51908;DHT22;39320;53.214;6.556;2023-06-10T13:11:16;24.00;99.90
51908;DHT22;39320;53.214;6.556;2023-06-10T13:13:42;24.00;99.90
51908;DHT22;39320;53.214;6.556;2023-06-10T13:16:09;24.00;99.90
51908;DHT22;39320;53.214;6.556;2023-06-10T13:18:38;24.10;99.90
51908;DHT22;39320;53.214;6.556;2023-06-10T13:21:04;24.10;99.90
51908;DHT22;39320;53.214;6.556;2023-06-10T13:23:30;24.20;99.90
51908;DHT22;39320;53.214;6.556;2023-06-10T13:25:57;24.20;99.90
51908;DHT22;39320;53.214;6.556;2023-06-10T13:28:23;24.20;99.90
51908;DHT22;39320;53.214;6.556;2023-06-10T13:30:48;24.20;99.90
51908;DHT22;39320;53.214;6.556;2023-06-10T13:33:14;24.20;99.90
51908;DHT22;39320;53.214;6.556;2023-06-10T13:35:40;24.20;99.90
51908;DHT22;39320;53.214;6.556;2023-06-10T13:38:07;24.30;99.90
51908;DHT22;39320;53.214;6.556;2023-06-10T13:40:33;24.30;99.90
51908;DHT22;39320;53.214;6.556;2023-06-10T13:42:58;24.40;99.90
51908;DHT22;39320;53.214;6.556;2023-06-10T13:45:24;24.50;99.90
51908;DHT22;39320;53.214;6.556;2023-06-10T13:47:50;24.50;99.90
51908;DHT22;39320;53.214;6.556;2023-06-10T13:50:16;24.50;99.90
51908;DHT22;39320;53.214;6.556;2023-06-10T13:52:42;24.50;99.90
51908;DHT22;39320;53.214;6.556;2023-06-10T13:55:08;24.70;99.90
51908;DHT22;39320;53.214;6.556;2023-06-10T13:57:34;24.70;99.90
51908;DHT22;39320;53.214;6.556;2023-06-10T14:00:00;24.80;99.90
51908;DHT22;39320;53.214;6.556;2023-06-10T14:02:26;24.90;99.90
51908;DHT22;39320;53.214;6.556;2023-06-10T14:04:52;24.90;99.90
51908;DHT22;39320;53.214;6.556;2023-06-10T14:07:17;25.00;99.80
51908;DHT22;39320;53.214;6.556;2023-06-10T14:09:43;25.10;99.10
51908;DHT22;39320;53.214;6.556;2023-06-10T14:12:09;25.10;99.10
51908;DHT22;39320;53.214;6.556;2023-06-10T14:14:36;25.20;98.20
51908;DHT22;39320;53.214;6.556;2023-06-10T14:17:02;25.10;97.70
51908;DHT22;39320;53.214;6.556;2023-06-10T14:19:30;25.20;98.20
51908;DHT22;39320;53.214;6.556;2023-06-10T14:21:56;25.20;97.10
51908;DHT22;39320;53.214;6.556;2023-06-10T14:24:21;25.30;96.50
51908;DHT22;39320;53.214;6.556;2023-06-10T14:26:47;25.30;96.90
51908;DHT22;39320;53.214;6.556;2023-06-10T14:29:13;25.40;96.60
51908;DHT22;39320;53.214;6.556;2023-06-10T14:31:40;25.50;95.90
51908;DHT22;39320;53.214;6.556;2023-06-10T14:34:06;25.50;94.10
51908;DHT22;39320;53.214;6.556;2023-06-10T14:36:34;25.50;93.40
51908;DHT22;39320;53.214;6.556;2023-06-10T14:39:00;25.50;92.90
51908;DHT22;39320;53.214;6.556;2023-06-10T14:41:26;25.60;91.90
51908;DHT22;39320;53.214;6.556;2023-06-10T14:43:52;25.60;91.30
51908;DHT22;39320;53.214;6.556;2023-06-10T14:46:18;25.60;89.90
51908;DHT22;39320;53.214;6.556;2023-06-10T14:48:46;25.70;86.80
51908;DHT22;39320;53.214;6.556;2023-06-10T14:51:12;25.70;86.90
51908;DHT22;39320;53.214;6.556;2023-06-10T14:53:38;25.80;85.60
51908;DHT22;39320;53.214;6.556;2023-06-10T14:56:04;25.80;84.50
51908;DHT22;39320;53.214;6.556;2023-06-10T14:58:30;25.90;86.10
51908;DHT22;39320;53.214;6.556;2023-06-10T15:00:56;25.90;87.10
51908;DHT22;39320;53.214;6.556;2023-06-10T15:03:21;25.90;88.40
51908;DHT22;39320;53.214;6.556;2023-06-10T15:05:47;26.00;88.00
51908;DHT22;39320;53.214;6.556;2023-06-10T15:08:13;26.00;86.40
51908;DHT22;39320;53.214;6.556;2023-06-10T15:10:39;26.10;86.20
51908;DHT22;39320;53.214;6.556;2023-06-10T15:13:05;26.10;86.70
51908;DHT22;39320;53.214;6.556;2023-06-10T15:15:31;26.20;88.50
51908;DHT22;39320;53.214;6.556;2023-06-10T15:17:56;26.20;88.80
51908;DHT22;39320;53.214;6.556;2023-06-10T15:20:22;26.30;87.00
51908;DHT22;39320;53.214;6.556;2023-06-10T15:22:48;26.30;85.90
51908;DHT22;39320;53.214;6.556;2023-06-10T15:25:14;26.30;85.40
51908;DHT22;39320;53.214;6.556;2023-06-10T15:27:39;26.30;86.40
51908;DHT22;39320;53.214;6.556;2023-06-10T15:30:05;26.30;86.30
51908;DHT22;39320;53.214;6.556;2023-06-10T15:32:31;26.40;85.00
51908;DHT22;39320;53.214;6.556;2023-06-10T15:34:57;26.40;83.30
51908;DHT22;39320;53.214;6.556;2023-06-10T15:37:23;26.40;81.70
51908;DHT22;39320;53.214;6.556;2023-06-10T15:39:49;26.40;81.60
51908;DHT22;39320;53.214;6.556;2023-06-10T15:42:15;26.40;82.60
51908;DHT22;39320;53.214;6.556;2023-06-10T15:44:41;26.40;82.80
51908;DHT22;39320;53.214;6.556;2023-06-10T15:47:06;26.50;83.60
51908;DHT22;39320;53.214;6.556;2023-06-10T15:49:33;26.60;83.20
51908;DHT22;39320;53.214;6.556;2023-06-10T15:51:58;26.70;81.50